sensor_id;sensor_type;location;lat;lon;timestamp;pressure;altitude;pressure_sealevel;temperature;humidity
65754;BME280;52488;47.502;18.940;2023-02-28T00:00:38;99026.31;;;-0.56;59.37
65754;BME280;52488;47.502;18.940;2023-02-28T00:01:41;99033.16;;;-0.61;59.48
65754;BME280;52488;47.502;18.940;2023-02-28T00:02:44;99036.12;;;-0.53;59.12
65754;BME280;52488;47.502;18.940;2023-02-28T00:03:48;99033.47;;;-0.47;58.84
65754;BME280;52488;47.502;18.940;2023-02-28T00:04:50;99034.88;;;-0.58;59.18
65754;BME280;52488;47.502;18.940;2023-02-28T00:05:55;99039.56;;;-0.58;59.41
65754;BME280;52488;47.502;18.940;2023-02-28T00:06:58;99038.81;;;-0.59;59.39
65754;BME280;52488;47.502;18.940;2023-02-28T00:08:01;99033.19;;;-0.55;59.06
65754;BME280;52488;47.502;18.940;2023-02-28T00:09:04;99041.28;;;-0.55;58.87
65754;BME280;52488;47.502;18.940;2023-02-28T00:10:08;99043.47;;;-0.59;59.04
65754;BME280;52488;47.502;18.940;2023-02-28T00:11:13;99041.03;;;-0.57;59.00
65754;BME280;52488;47.502;18.940;2023-02-28T00:12:16;99045.91;;;-0.61;59.18
65754;BME280;52488;47.502;18.940;2023-02-28T00:13:19;99046.69;;;-0.55;59.04
65754;BME280;52488;47.502;18.940;2023-02-28T00:14:21;99049.13;;;-0.57;59.21
65754;BME280;52488;47.502;18.940;2023-02-28T00:15:24;99043.47;;;-0.59;59.17
65754;BME280;52488;47.502;18.940;2023-02-28T00:16:27;99050.63;;;-0.50;59.00
65754;BME280;52488;47.502;18.940;2023-02-28T00:17:30;99049.38;;;-0.55;59.16
65754;BME280;52488;47.502;18.940;2023-02-28T00:18:33;99050.09;;;-0.60;59.22
65754;BME280;52488;47.502;18.940;2023-02-28T00:19:36;99055.22;;;-0.62;59.54
65754;BME280;52488;47.502;18.940;2023-02-28T00:20:39;99054.00;;;-0.61;59.60
65754;BME280;52488;47.502;18.940;2023-02-28T00:21:42;99048.37;;;-0.58;59.48
65754;BME280;52488;47.502;18.940;2023-02-28T00:22:48;99045.00;;;-0.47;58.72
65754;BME280;52488;47.502;18.940;2023-02-28T00:23:51;99047.69;;;-0.52;58.95
65754;BME280;52488;47.502;18.940;2023-02-28T00:24:54;99056.00;;;-0.56;59.07
65754;BME280;52488;47.502;18.940;2023-02-28T00:25:57;99052.16;;;-0.38;58.37
65754;BME280;52488;47.502;18.940;2023-02-28T00:27:00;99059.03;;;-0.37;58.14
65754;BME280;52488;47.502;18.940;2023-02-28T00:28:03;99057.28;;;-0.46;58.60
65754;BME280;52488;47.502;18.940;2023-02-28T00:29:06;99059.19;;;-0.52;59.14
65754;BME280;52488;47.502;18.940;2023-02-28T00:30:15;99058.69;;;-0.56;59.72
65754;BME280;52488;47.502;18.940;2023-02-28T00:31:19;99061.88;;;-0.58;60.04
65754;BME280;52488;47.502;18.940;2023-02-28T00:32:21;99061.19;;;-0.47;59.68
65754;BME280;52488;47.502;18.940;2023-02-28T00:33:24;99060.97;;;-0.43;59.54
65754;BME280;52488;47.502;18.940;2023-02-28T00:34:27;99059.47;;;-0.50;59.57
65754;BME280;52488;47.502;18.940;2023-02-28T00:35:30;99067.34;;;-0.41;58.96
65754;BME280;52488;47.502;18.940;2023-02-28T00:36:33;99061.75;;;-0.32;57.85
65754;BME280;52488;47.502;18.940;2023-02-28T00:37:36;99062.78;;;-0.23;57.05
65754;BME280;52488;47.502;18.940;2023-02-28T00:38:39;99058.88;;;-0.17;57.02
65754;BME280;52488;47.502;18.940;2023-02-28T00:39:43;99067.72;;;-0.16;57.11
65754;BME280;52488;47.502;18.940;2023-02-28T00:40:45;99064.25;;;-0.17;57.05
65754;BME280;52488;47.502;18.940;2023-02-28T00:41:49;99070.63;;;-0.25;57.32
65754;BME280;52488;47.502;18.940;2023-02-28T00:42:51;99063.97;;;-0.30;57.45
65754;BME280;52488;47.502;18.940;2023-02-28T00:43:54;99060.53;;;-0.31;57.45
65754;BME280;52488;47.502;18.940;2023-02-28T00:44:57;99066.16;;;-0.34;57.64
65754;BME280;52488;47.502;18.940;2023-02-28T00:46:00;99064.50;;;-0.26;57.42
65754;BME280;52488;47.502;18.940;2023-02-28T00:47:04;99066.69;;;-0.24;56.94
65754;BME280;52488;47.502;18.940;2023-02-28T00:48:07;99066.69;;;-0.30;57.37
65754;BME280;52488;47.502;18.940;2023-02-28T00:49:10;99068.12;;;-0.35;57.57
65754;BME280;52488;47.502;18.940;2023-02-28T00:50:13;99061.75;;;-0.37;57.65
65754;BME280;52488;47.502;18.940;2023-02-28T00:51:16;99072.09;;;-0.24;56.93
65754;BME280;52488;47.502;18.940;2023-02-28T00:52:18;99069.41;;;-0.24;56.93
65754;BME280;52488;47.502;18.940;2023-02-28T00:53:21;99070.09;;;-0.30;57.11
65754;BME280;52488;47.502;18.940;2023-02-28T00:54:24;99070.38;;;-0.28;57.17
65754;BME280;52488;47.502;18.940;2023-02-28T00:55:27;99069.88;;;-0.26;56.89
65754;BME280;52488;47.502;18.940;2023-02-28T00:56:30;99061.59;;;-0.11;56.33
65754;BME280;52488;47.502;18.940;2023-02-28T00:57:33;99063.56;;;-0.06;56.05
65754;BME280;52488;47.502;18.940;2023-02-28T00:58:36;99071.63;;;-0.17;56.13
65754;BME280;52488;47.502;18.940;2023-02-28T00:59:39;99069.41;;;-0.24;56.66
65754;BME280;52488;47.502;18.940;2023-02-28T01:00:42;99066.97;;;-0.17;56.33
65754;BME280;52488;47.502;18.940;2023-02-28T01:01:46;99064.25;;;-0.17;56.52
65754;BME280;52488;47.502;18.940;2023-02-28T01:02:49;99066.47;;;-0.21;56.42
65754;BME280;52488;47.502;18.940;2023-02-28T01:03:52;99064.28;;;-0.11;56.00
65754;BME280;52488;47.502;18.940;2023-02-28T01:04:55;99065.50;;;-0.12;55.93
65754;BME280;52488;47.502;18.940;2023-02-28T01:05:59;99069.41;;;-0.19;56.14
65754;BME280;52488;47.502;18.940;2023-02-28T01:07:02;99067.25;;;-0.09;55.41
65754;BME280;52488;47.502;18.940;2023-02-28T01:08:05;99071.63;;;-0.17;55.98
65754;BME280;52488;47.502;18.940;2023-02-28T01:09:09;99061.34;;;-0.13;55.80
65754;BME280;52488;47.502;18.940;2023-02-28T01:10:12;99070.16;;;-0.18;56.13
65754;BME280;52488;47.502;18.940;2023-02-28T01:11:17;99062.31;;;-0.16;56.08
65754;BME280;52488;47.502;18.940;2023-02-28T01:12:20;99063.53;;;-0.17;56.12
65754;BME280;52488;47.502;18.940;2023-02-28T01:13:23;99062.84;;;-0.01;55.67
65754;BME280;52488;47.502;18.940;2023-02-28T01:14:27;99062.09;;;-0.07;55.79
65754;BME280;52488;47.502;18.940;2023-02-28T01:15:30;99055.22;;;-0.08;56.00
65754;BME280;52488;47.502;18.940;2023-02-28T01:16:34;99069.44;;;-0.13;56.11
65754;BME280;52488;47.502;18.940;2023-02-28T01:17:37;99073.63;;;-0.12;55.86
65754;BME280;52488;47.502;18.940;2023-02-28T01:18:40;99075.56;;;-0.18;56.19
65754;BME280;52488;47.502;18.940;2023-02-28T01:19:43;99065.25;;;-0.20;56.47
65754;BME280;52488;47.502;18.940;2023-02-28T01:20:46;99075.84;;;-0.16;56.31
65754;BME280;52488;47.502;18.940;2023-02-28T01:21:49;99071.63;;;-0.17;56.37
65754;BME280;52488;47.502;18.940;2023-02-28T01:22:51;99074.34;;;-0.12;56.24
65754;BME280;52488;47.502;18.940;2023-02-28T01:23:56;99073.13;;;-0.16;56.16
65754;BME280;52488;47.502;18.940;2023-02-28T01:24:59;99072.63;;;-0.15;56.27
65754;BME280;52488;47.502;18.940;2023-02-28T01:26:13;99068.03;;;0.03;55.56
65754;BME280;52488;47.502;18.940;2023-02-28T01:27:16;99074.62;;;-0.04;55.76
65754;BME280;52488;47.502;18.940;2023-02-28T01:28:21;99074.62;;;-0.04;55.83
65754;BME280;52488;47.502;18.940;2023-02-28T01:29:24;99072.69;;;0.02;55.59
65754;BME280;52488;47.502;18.940;2023-02-28T01:30:27;99065.31;;;-0.03;55.56
65754;BME280;52488;47.502;18.940;2023-02-28T01:31:30;99073.16;;;-0.11;55.98
65754;BME280;52488;47.502;18.940;2023-02-28T01:32:33;99064.56;;;-0.09;56.12
65754;BME280;52488;47.502;18.940;2023-02-28T01:33:36;99072.91;;;-0.07;55.78
65754;BME280;52488;47.502;18.940;2023-02-28T01:34:40;99072.66;;;-0.09;55.96
65754;BME280;52488;47.502;18.940;2023-02-28T01:35:43;99069.25;;;-0.04;55.84
65754;BME280;52488;47.502;18.940;2023-02-28T01:36:46;99066.78;;;-0.02;55.79
65754;BME280;52488;47.502;18.940;2023-02-28T01:37:48;99064.78;;;-0.07;55.97
65754;BME280;52488;47.502;18.940;2023-02-28T01:38:52;99067.06;;;0.00;55.80
65754;BME280;52488;47.502;18.940;2023-02-28T01:39:55;99066.03;;;-0.08;55.95
65754;BME280;52488;47.502;18.940;2023-02-28T01:40:58;99068.75;;;0.03;55.40
65754;BME280;52488;47.502;18.940;2023-02-28T01:42:01;99065.31;;;-0.03;55.64
65754;BME280;52488;47.502;18.940;2023-02-28T01:43:10;99063.84;;;-0.04;55.69
65754;BME280;52488;47.502;18.940;2023-02-28T01:44:57;99062.59;;;-0.03;55.68
65754;BME280;52488;47.502;18.940;2023-02-28T01:46:04;99059.41;;;-0.02;55.90
65754;BME280;52488;47.502;18.940;2023-02-28T01:47:07;99056.25;;;0.00;55.65
65754;BME280;52488;47.502;18.940;2023-02-28T01:48:10;99055.72;;;-0.04;55.91
65754;BME280;52488;47.502;18.940;2023-02-28T01:49:15;99062.09;;;-0.07;55.98
65754;BME280;52488;47.502;18.940;2023-02-28T01:50:21;99062.84;;;-0.01;55.97
65754;BME280;52488;47.502;18.940;2023-02-28T01:51:37;99060.62;;;-0.08;55.79
65754;BME280;52488;47.502;18.940;2023-02-28T01:52:42;99065.28;;;-0.09;55.94
65754;BME280;52488;47.502;18.940;2023-02-28T01:53:55;99059.88;;;-0.09;55.77
65754;BME280;52488;47.502;18.940;2023-02-28T01:55:01;99063.09;;;-0.10;56.00
65754;BME280;52488;47.502;18.940;2023-02-28T01:56:06;99060.38;;;-0.10;56.06
65754;BME280;52488;47.502;18.940;2023-02-28T01:57:14;99059.66;;;-0.11;56.08
65754;BME280;52488;47.502;18.940;2023-02-28T01:58:19;99059.88;;;-0.14;56.35
65754;BME280;52488;47.502;18.940;2023-02-28T01:59:33;99059.16;;;-0.09;56.21
65754;BME280;52488;47.502;18.940;2023-02-28T02:00:37;99066.03;;;-0.03;55.82
65754;BME280;52488;47.502;18.940;2023-02-28T02:01:42;99059.16;;;-0.04;55.93
65754;BME280;52488;47.502;18.940;2023-02-28T02:02:48;99061.66;;;0.00;55.78
65754;BME280;52488;47.502;18.940;2023-02-28T02:03:58;99063.09;;;-0.05;55.93
65754;BME280;52488;47.502;18.940;2023-02-28T02:05:36;99065.06;;;-0.05;56.13
65754;BME280;52488;47.502;18.940;2023-02-28T02:06:43;99063.59;;;-0.01;55.77
65754;BME280;52488;47.502;18.940;2023-02-28T02:07:50;99057.16;;;-0.14;56.21
65754;BME280;52488;47.502;18.940;2023-02-28T02:08:54;99061.13;;;-0.04;55.95
65754;BME280;52488;47.502;18.940;2023-02-28T02:10:16;99060.12;;;-0.07;55.94
65754;BME280;52488;47.502;18.940;2023-02-28T02:11:22;99058.91;;;-0.06;56.03
65754;BME280;52488;47.502;18.940;2023-02-28T02:12:51;99061.88;;;0.02;55.45
65754;BME280;52488;47.502;18.940;2023-02-28T02:15:21;99061.88;;;-0.04;55.69
65754;BME280;52488;47.502;18.940;2023-02-28T02:17:52;99065.56;;;-0.01;55.78
65754;BME280;52488;47.502;18.940;2023-02-28T02:22:08;99062.59;;;-0.09;55.72
65754;BME280;52488;47.502;18.940;2023-02-28T02:25:51;99063.84;;;-0.04;55.53
65754;BME280;52488;47.502;18.940;2023-02-28T02:27:26;99060.62;;;-0.03;55.54
65754;BME280;52488;47.502;18.940;2023-02-28T02:29:12;99060.41;;;0.01;55.22
65754;BME280;52488;47.502;18.940;2023-02-28T02:30:17;99061.59;;;-0.06;55.44
65754;BME280;52488;47.502;18.940;2023-02-28T02:31:51;99064.78;;;-0.07;55.61
65754;BME280;52488;47.502;18.940;2023-02-28T02:33:35;99060.62;;;-0.08;55.57
65754;BME280;52488;47.502;18.940;2023-02-28T02:36:27;99063.09;;;-0.10;55.45
65754;BME280;52488;47.502;18.940;2023-02-28T02:37:42;99069.41;;;-0.19;55.98
65754;BME280;52488;47.502;18.940;2023-02-28T02:38:53;99060.38;;;-0.10;56.15
65754;BME280;52488;47.502;18.940;2023-02-28T02:40:20;99056.19;;;-0.11;55.71
65754;BME280;52488;47.502;18.940;2023-02-28T02:41:35;99063.09;;;-0.10;55.59
65754;BME280;52488;47.502;18.940;2023-02-28T02:42:55;99059.66;;;-0.05;55.61
65754;BME280;52488;47.502;18.940;2023-02-28T02:44:11;99066.53;;;-0.10;55.70
65754;BME280;52488;47.502;18.940;2023-02-28T02:46:42;99069.66;;;-0.17;55.66
65754;BME280;52488;47.502;18.940;2023-02-28T02:47:46;99058.88;;;-0.11;55.79
65754;BME280;52488;47.502;18.940;2023-02-28T02:48:55;99062.31;;;-0.16;55.87
65754;BME280;52488;47.502;18.940;2023-02-28T02:50:04;99065.03;;;-0.16;55.72
65754;BME280;52488;47.502;18.940;2023-02-28T02:51:15;99067.94;;;-0.20;55.83
65754;BME280;52488;47.502;18.940;2023-02-28T02:52:23;99067.94;;;-0.25;56.19
65754;BME280;52488;47.502;18.940;2023-02-28T02:53:32;99073.84;;;-0.21;56.20
65754;BME280;52488;47.502;18.940;2023-02-28T02:54:41;99063.03;;;-0.21;56.07
65754;BME280;52488;47.502;18.940;2023-02-28T02:55:47;99073.34;;;-0.20;56.00
65754;BME280;52488;47.502;18.940;2023-02-28T02:57:00;99069.19;;;-0.15;55.94
65754;BME280;52488;47.502;18.940;2023-02-28T02:58:08;99063.09;;;-0.10;55.89
65754;BME280;52488;47.502;18.940;2023-02-28T02:59:16;99067.00;;;-0.06;55.75
65754;BME280;52488;47.502;18.940;2023-02-28T03:00:29;99070.16;;;-0.18;56.10
65754;BME280;52488;47.502;18.940;2023-02-28T03:01:34;99062.38;;;-0.05;55.80
65754;BME280;52488;47.502;18.940;2023-02-28T03:02:41;99068.69;;;-0.19;56.34
65754;BME280;52488;47.502;18.940;2023-02-28T03:03:45;99064.25;;;-0.22;56.44
65754;BME280;52488;47.502;18.940;2023-02-28T03:04:53;99072.34;;;-0.22;56.54
65754;BME280;52488;47.502;18.940;2023-02-28T03:05:59;99071.63;;;-0.17;56.28
65754;BME280;52488;47.502;18.940;2023-02-28T03:07:03;99066.72;;;-0.19;56.52
65754;BME280;52488;47.502;18.940;2023-02-28T03:08:06;99074.84;;;-0.13;56.17
65754;BME280;52488;47.502;18.940;2023-02-28T03:09:09;99078.53;;;-0.16;56.19
65754;BME280;52488;47.502;18.940;2023-02-28T03:10:28;99075.53;;;-0.24;56.44
65754;BME280;52488;47.502;18.940;2023-02-28T03:11:35;99074.06;;;-0.25;56.56
65754;BME280;52488;47.502;18.940;2023-02-28T03:12:45;99071.37;;;-0.19;56.20
65754;BME280;52488;47.502;18.940;2023-02-28T03:15:28;99077.22;;;-0.32;56.95
65754;BME280;52488;47.502;18.940;2023-02-28T03:18:04;99077.50;;;-0.24;56.56
65754;BME280;52488;47.502;18.940;2023-02-28T03:25:13;99076.53;;;-0.27;57.07
65754;BME280;52488;47.502;18.940;2023-02-28T03:26:21;99077.97;;;-0.32;57.08
65754;BME280;52488;47.502;18.940;2023-02-28T03:30:31;99078.53;;;-0.16;56.19
65754;BME280;52488;47.502;18.940;2023-02-28T03:31:43;99081.19;;;-0.28;56.45
65754;BME280;52488;47.502;18.940;2023-02-28T03:32:59;99076.78;;;-0.19;56.21
65754;BME280;52488;47.502;18.940;2023-02-28T03:34:34;99076.53;;;-0.21;55.97
65754;BME280;52488;47.502;18.940;2023-02-28T03:35:48;99077.72;;;-0.28;56.32
65754;BME280;52488;47.502;18.940;2023-02-28T03:36:57;99079.72;;;-0.23;56.55
65754;BME280;52488;47.502;18.940;2023-02-28T03:38:29;99083.12;;;-0.28;56.56
65754;BME280;52488;47.502;18.940;2023-02-28T03:39:41;99076.78;;;-0.19;56.18
65754;BME280;52488;47.502;18.940;2023-02-28T03:40:49;99079.97;;;-0.27;56.30
65754;BME280;52488;47.502;18.940;2023-02-28T03:41:58;99082.12;;;-0.31;56.34
65754;BME280;52488;47.502;18.940;2023-02-28T03:43:08;99081.38;;;-0.37;56.56
65754;BME280;52488;47.502;18.940;2023-02-28T03:44:21;99075.25;;;-0.37;56.82
65754;BME280;52488;47.502;18.940;2023-02-28T03:45:28;99079.69;;;-0.29;56.53
65754;BME280;52488;47.502;18.940;2023-02-28T03:46:36;99074.28;;;-0.29;56.58
65754;BME280;52488;47.502;18.940;2023-02-28T03:47:46;99082.12;;;-0.31;56.44
65754;BME280;52488;47.502;18.940;2023-02-28T03:48:58;99074.56;;;-0.27;56.49
65754;BME280;52488;47.502;18.940;2023-02-28T03:50:23;99075.75;;;-0.33;56.39
65754;BME280;52488;47.502;18.940;2023-02-28T03:51:27;99075.75;;;-0.33;56.60
65754;BME280;52488;47.502;18.940;2023-02-28T03:52:35;99076.97;;;-0.34;56.48
65754;BME280;52488;47.502;18.940;2023-02-28T03:53:50;99082.84;;;-0.36;56.51
65754;BME280;52488;47.502;18.940;2023-02-28T03:54:57;99082.12;;;-0.36;56.80
65754;BME280;52488;47.502;18.940;2023-02-28T03:56:12;99085.28;;;-0.43;57.05
65754;BME280;52488;47.502;18.940;2023-02-28T03:57:26;99075.75;;;-0.33;56.65
65754;BME280;52488;47.502;18.940;2023-02-28T03:58:55;99075.72;;;-0.39;56.82
65754;BME280;52488;47.502;18.940;2023-02-28T04:00:06;99075.72;;;-0.39;57.03
65754;BME280;52488;47.502;18.940;2023-02-28T04:01:33;99074.97;;;-0.39;56.87
65754;BME280;52488;47.502;18.940;2023-02-28T04:02:38;99074.00;;;-0.36;56.43
65754;BME280;52488;47.502;18.940;2023-02-28T04:03:41;99080.84;;;-0.41;56.75
65754;BME280;52488;47.502;18.940;2023-02-28T04:04:44;99074.94;;;-0.45;56.92
65754;BME280;52488;47.502;18.940;2023-02-28T04:05:53;99074.75;;;-0.36;56.63
65754;BME280;52488;47.502;18.940;2023-02-28T04:07:05;99067.69;;;-0.28;56.33
65754;BME280;52488;47.502;18.940;2023-02-28T04:08:08;99077.19;;;-0.38;56.62
65754;BME280;52488;47.502;18.940;2023-02-28T04:09:13;99077.94;;;-0.37;56.96
65754;BME280;52488;47.502;18.940;2023-02-28T04:10:17;99073.03;;;-0.39;56.73
65754;BME280;52488;47.502;18.940;2023-02-28T04:12:23;99074.69;;;-0.47;57.15
65754;BME280;52488;47.502;18.940;2023-02-28T04:13:26;99076.44;;;-0.44;57.13
65754;BME280;52488;47.502;18.940;2023-02-28T04:14:29;99067.59;;;-0.44;57.27
65754;BME280;52488;47.502;18.940;2023-02-28T04:15:32;99072.25;;;-0.39;57.16
65754;BME280;52488;47.502;18.940;2023-02-28T04:16:38;99067.94;;;-0.25;56.74
65754;BME280;52488;47.502;18.940;2023-02-28T04:17:41;99067.66;;;-0.33;56.77
65754;BME280;52488;47.502;18.940;2023-02-28T04:18:44;99060.97;;;-0.43;57.24
65754;BME280;52488;47.502;18.940;2023-02-28T04:19:47;99063.16;;;-0.47;57.17
65754;BME280;52488;47.502;18.940;2023-02-28T04:20:50;99067.78;;;-0.54;57.54
65754;BME280;52488;47.502;18.940;2023-02-28T04:21:53;99066.59;;;-0.47;57.51
65754;BME280;52488;47.502;18.940;2023-02-28T04:22:56;99070.56;;;-0.37;57.56
65754;BME280;52488;47.502;18.940;2023-02-28T04:23:59;99068.12;;;-0.35;57.03
65754;BME280;52488;47.502;18.940;2023-02-28T04:25:03;99071.84;;;-0.32;57.09
65754;BME280;52488;47.502;18.940;2023-02-28T04:26:08;99072.78;;;-0.35;56.94
65754;BME280;52488;47.502;18.940;2023-02-28T04:27:11;99062.22;;;-0.44;57.40
65754;BME280;52488;47.502;18.940;2023-02-28T04:28:13;99066.38;;;-0.43;57.47
65754;BME280;52488;47.502;18.940;2023-02-28T04:29:22;99058.00;;;-0.45;57.65
65754;BME280;52488;47.502;18.940;2023-02-28T04:30:26;99065.84;;;-0.47;57.80
65754;BME280;52488;47.502;18.940;2023-02-28T04:31:29;99060.72;;;-0.40;57.57
65754;BME280;52488;47.502;18.940;2023-02-28T04:32:33;99063.47;;;-0.34;57.38
65754;BME280;52488;47.502;18.940;2023-02-28T04:33:35;99059.75;;;-0.42;57.61
65754;BME280;52488;47.502;18.940;2023-02-28T04:34:39;99062.44;;;-0.48;57.86
65754;BME280;52488;47.502;18.940;2023-02-28T04:35:41;99067.59;;;-0.44;57.72
65754;BME280;52488;47.502;18.940;2023-02-28T04:36:44;99062.44;;;-0.42;57.88
65754;BME280;52488;47.502;18.940;2023-02-28T04:37:49;99057.28;;;-0.40;57.48
65754;BME280;52488;47.502;18.940;2023-02-28T04:38:52;99065.41;;;-0.40;57.58
65754;BME280;52488;47.502;18.940;2023-02-28T04:39:55;99054.09;;;-0.50;57.88
65754;BME280;52488;47.502;18.940;2023-02-28T04:40:59;99060.44;;;-0.53;58.03
65754;BME280;52488;47.502;18.940;2023-02-28T04:42:03;99067.09;;;-0.48;57.91
65754;BME280;52488;47.502;18.940;2023-02-28T04:43:05;99062.41;;;-0.54;57.96
65754;BME280;52488;47.502;18.940;2023-02-28T04:44:08;99065.84;;;-0.53;58.00
65754;BME280;52488;47.502;18.940;2023-02-28T04:45:11;99063.37;;;-0.51;57.97
65754;BME280;52488;47.502;18.940;2023-02-28T04:46:14;99067.06;;;-0.54;57.95
65754;BME280;52488;47.502;18.940;2023-02-28T04:47:17;99059.50;;;-0.44;57.72
65754;BME280;52488;47.502;18.940;2023-02-28T04:48:20;99053.41;;;-0.34;57.40
65754;BME280;52488;47.502;18.940;2023-02-28T04:49:23;99061.22;;;-0.41;57.47
65754;BME280;52488;47.502;18.940;2023-02-28T04:50:26;99062.47;;;-0.37;57.46
65754;BME280;52488;47.502;18.940;2023-02-28T04:51:29;99064.44;;;-0.37;57.17
65754;BME280;52488;47.502;18.940;2023-02-28T04:52:33;99060.00;;;-0.40;57.37
65754;BME280;52488;47.502;18.940;2023-02-28T04:53:37;99067.09;;;-0.48;57.63
65754;BME280;52488;47.502;18.940;2023-02-28T04:54:40;99064.59;;;-0.52;57.87
65754;BME280;52488;47.502;18.940;2023-02-28T04:55:43;99063.13;;;-0.53;58.04
65754;BME280;52488;47.502;18.940;2023-02-28T04:56:46;99068.09;;;-0.40;57.57
65754;BME280;52488;47.502;18.940;2023-02-28T04:57:52;99070.06;;;-0.41;57.63
65754;BME280;52488;47.502;18.940;2023-02-28T04:58:55;99067.59;;;-0.44;57.86
65754;BME280;52488;47.502;18.940;2023-02-28T04:59:58;99063.69;;;-0.43;57.89
65754;BME280;52488;47.502;18.940;2023-02-28T05:01:04;99067.59;;;-0.44;57.77
65754;BME280;52488;47.502;18.940;2023-02-28T05:02:15;99064.34;;;-0.54;58.12
65754;BME280;52488;47.502;18.940;2023-02-28T05:03:18;99055.22;;;-0.62;58.46
65754;BME280;52488;47.502;18.940;2023-02-28T05:04:23;99063.34;;;-0.57;58.42
65754;BME280;52488;47.502;18.940;2023-02-28T05:05:26;99065.63;;;-0.49;58.25
65754;BME280;52488;47.502;18.940;2023-02-28T05:06:30;99068.06;;;-0.46;57.95
65754;BME280;52488;47.502;18.940;2023-02-28T05:07:33;99067.84;;;-0.42;57.96
65754;BME280;52488;47.502;18.940;2023-02-28T05:08:37;99063.69;;;-0.38;57.79
65754;BME280;52488;47.502;18.940;2023-02-28T05:09:40;99069.81;;;-0.43;57.97
65754;BME280;52488;47.502;18.940;2023-02-28T05:10:43;99066.81;;;-0.50;58.34
65754;BME280;52488;47.502;18.940;2023-02-28T05:11:45;99067.06;;;-0.54;58.49
65754;BME280;52488;47.502;18.940;2023-02-28T05:12:48;99066.81;;;-0.50;58.50
65754;BME280;52488;47.502;18.940;2023-02-28T05:13:52;99066.84;;;-0.45;58.26
65754;BME280;52488;47.502;18.940;2023-02-28T05:14:55;99068.59;;;-0.42;58.02
65754;BME280;52488;47.502;18.940;2023-02-28T05:15:58;99069.06;;;-0.49;58.27
65754;BME280;52488;47.502;18.940;2023-02-28T05:17:01;99063.41;;;-0.45;58.24
65754;BME280;52488;47.502;18.940;2023-02-28T05:18:04;99067.78;;;-0.54;58.47
65754;BME280;52488;47.502;18.940;2023-02-28T05:19:10;99066.34;;;-0.49;58.49
65754;BME280;52488;47.502;18.940;2023-02-28T05:20:13;99061.66;;;-0.54;58.57
65754;BME280;52488;47.502;18.940;2023-02-28T05:21:39;99075.59;;;-0.61;58.91
65754;BME280;52488;47.502;18.940;2023-02-28T05:22:43;99073.13;;;-0.65;59.26
65754;BME280;52488;47.502;18.940;2023-02-28T05:23:46;99078.03;;;-0.63;59.27
65754;BME280;52488;47.502;18.940;2023-02-28T05:24:49;99075.81;;;-0.65;59.46
65754;BME280;52488;47.502;18.940;2023-02-28T05:25:52;99074.38;;;-0.60;59.53
65754;BME280;52488;47.502;18.940;2023-02-28T05:26:55;99076.34;;;-0.61;59.52
65754;BME280;52488;47.502;18.940;2023-02-28T05:27:58;99076.59;;;-0.59;59.31
65754;BME280;52488;47.502;18.940;2023-02-28T05:29:01;99081.75;;;-0.61;59.36
65754;BME280;52488;47.502;18.940;2023-02-28T05:30:06;99074.16;;;-0.57;59.37
65754;BME280;52488;47.502;18.940;2023-02-28T05:31:12;99079.53;;;-0.57;59.19
65754;BME280;52488;47.502;18.940;2023-02-28T05:32:15;99074.62;;;-0.58;59.21
65754;BME280;52488;47.502;18.940;2023-02-28T05:33:18;99077.09;;;-0.60;59.21
65754;BME280;52488;47.502;18.940;2023-02-28T05:34:21;99072.88;;;-0.61;59.30
65754;BME280;52488;47.502;18.940;2023-02-28T05:35:24;99079.03;;;-0.61;59.32
65754;BME280;52488;47.502;18.940;2023-02-28T05:36:27;99079.03;;;-0.61;59.40
65754;BME280;52488;47.502;18.940;2023-02-28T05:37:30;99080.03;;;-0.58;59.31
65754;BME280;52488;47.502;18.940;2023-02-28T05:38:33;99082.72;;;-0.58;59.27
65754;BME280;52488;47.502;18.940;2023-02-28T05:39:39;99085.44;;;-0.58;59.32
65754;BME280;52488;47.502;18.940;2023-02-28T05:40:42;99088.13;;;-0.58;59.38
65754;BME280;52488;47.502;18.940;2023-02-28T05:41:45;99090.81;;;-0.58;59.40
65754;BME280;52488;47.502;18.940;2023-02-28T05:42:50;99089.06;;;-0.61;59.60
65754;BME280;52488;47.502;18.940;2023-02-28T05:43:53;99094.47;;;-0.61;59.60
65754;BME280;52488;47.502;18.940;2023-02-28T05:44:55;99090.09;;;-0.59;59.65
65754;BME280;52488;47.502;18.940;2023-02-28T05:45:58;99088.38;;;-0.56;59.69
65754;BME280;52488;47.502;18.940;2023-02-28T05:47:01;99095.06;;;-0.46;59.25
65754;BME280;52488;47.502;18.940;2023-02-28T05:48:04;99096.25;;;-0.52;59.32
65754;BME280;52488;47.502;18.940;2023-02-28T05:49:07;99090.66;;;-0.49;59.26
65754;BME280;52488;47.502;18.940;2023-02-28T05:50:10;99089.97;;;-0.38;58.62
65754;BME280;52488;47.502;18.940;2023-02-28T05:51:14;99094.94;;;-0.25;57.98
65754;BME280;52488;47.502;18.940;2023-02-28T05:52:17;99094.69;;;-0.28;57.76
65754;BME280;52488;47.502;18.940;2023-02-28T05:53:20;99090.75;;;-0.27;57.49
65754;BME280;52488;47.502;18.940;2023-02-28T05:54:23;99100.53;;;-0.35;57.85
65754;BME280;52488;47.502;18.940;2023-02-28T05:55:26;99101.22;;;-0.40;58.17
65754;BME280;52488;47.502;18.940;2023-02-28T05:56:29;99098.31;;;-0.36;57.93
65754;BME280;52488;47.502;18.940;2023-02-28T05:57:32;99112.31;;;-0.32;57.78
65754;BME280;52488;47.502;18.940;2023-02-28T05:58:35;99112.06;;;-0.34;57.95
65754;BME280;52488;47.502;18.940;2023-02-28T05:59:38;99112.75;;;-0.39;58.06
65754;BME280;52488;47.502;18.940;2023-02-28T06:00:42;99113.25;;;-0.41;58.23
65754;BME280;52488;47.502;18.940;2023-02-28T06:01:46;99112.03;;;-0.40;58.25
65754;BME280;52488;47.502;18.940;2023-02-28T06:02:53;99115.97;;;-0.35;57.94
65754;BME280;52488;47.502;18.940;2023-02-28T06:04:00;99112.78;;;-0.34;57.84
65754;BME280;52488;47.502;18.940;2023-02-28T06:05:03;99116.00;;;-0.30;57.77
65754;BME280;52488;47.502;18.940;2023-02-28T06:06:06;99114.31;;;-0.27;57.72
65754;BME280;52488;47.502;18.940;2023-02-28T06:07:09;99109.63;;;-0.32;57.85
65754;BME280;52488;47.502;18.940;2023-02-28T06:08:13;99111.31;;;-0.35;58.06
65754;BME280;52488;47.502;18.940;2023-02-28T06:09:17;99110.84;;;-0.33;58.19
65754;BME280;52488;47.502;18.940;2023-02-28T06:10:20;99108.69;;;-0.23;57.91
65754;BME280;52488;47.502;18.940;2023-02-28T06:11:23;99113.31;;;-0.30;57.82